Latest Weather Observations for Kununurra Airport

IDD60801

Issued at 11:31 pm CST Wednesday 7 December 2016 (issued every 30 minutes, with the page automatically refreshed every 10 minutes)

About weather observations | Map of weather stations | Latest weather observations for NT | Other Formats
Station Details ID: 002056 Name: KUNUNURRA AERO Lat: -15.78 Lon: 128.71 Height: 44.0 m
Data from the previous 72 hours. | See also: Recent months at Kununurra Airport
Date/Time
CST
Temp
°C
App
Temp
°C
Dew
Point
°C
Rel
Hum
%
Delta-T
°C
Wind Press
QNH
hPa
Press
MSL
hPa
Rain since
9am
mm
Dir  Spd
km/h
Gust
km/h
Spd
kts
Gust
kts
07/11:00pm 31.7 34.4 20.6 51 7.4 NE 7 11 4 6 1006.7 1006.4 0.0
07/10:30pm 32.2 35.2 20.8 51 7.7 ENE 6 6 3 3 1006.6 1006.3 0.0
07/10:00pm 32.0 34.4 20.9 52 7.4 NNE 9 11 5 6 1006.7 1006.4 0.0
07/09:30pm 33.2 35.3 21.0 48 8.2 NNW 11 13 6 7 1006.7 1006.4 0.0
07/09:00pm 33.6 35.6 20.7 46 8.7 N 11 11 6 6 1006.3 1005.9 0.0
07/08:30pm 34.8 36.0 20.7 43 9.5 N 15 19 8 10 1005.9 1005.5 0.0
07/08:00pm 34.9 36.2 20.1 42 9.9 N 13 17 7 9 1005.1 1004.7 0.0
07/07:30pm 35.8 36.5 18.8 36 11.2 N 13 17 7 9 1004.7 1004.3 0.0
07/07:00pm 38.7 40.0 17.5 29 13.8 NNE 7 15 4 8 1004.4 1004.0 0.0
07/06:30pm 40.2 39.4 15.1 23 16.0 N 13 19 7 10 1004.1 1003.7 0.0
07/06:00pm 40.2 39.6 15.7 23 15.7 NE 13 24 7 13 1003.9 1003.5 0.0
07/05:30pm 40.2 39.8 15.1 23 16.0 ESE 11 20 6 11 1003.7 1003.3 0.0
07/05:00pm 40.7 40.0 15.5 23 16.1 N 13 20 7 11 1003.9 1003.5 0.0
07/04:30pm 41.4 41.3 16.1 23 16.4 N 11 17 6 9 1004.1 1003.7 0.0
07/04:00pm 40.3 38.4 15.2 23 16.0 NE 19 24 10 13 1004.3 1003.9 0.0
07/03:30pm 40.7 40.7 16.2 24 15.9 SSE 11 17 6 9 1004.5 1004.1 0.0
07/03:00pm 40.8 39.4 15.6 23 16.1 NNE 17 24 9 13 1004.9 1004.5 0.0
07/02:30pm 40.6 39.8 16.1 24 15.8 ESE 15 24 8 13 1005.2 1004.8 0.0
07/02:00pm 39.5 41.2 18.1 28 14.1 N 6 9 3 5 1005.6 1005.2 0.0
07/01:30pm 39.6 40.3 18.8 30 13.9 SSW 13 17 7 9 1005.9 1005.5 0.0
07/01:00pm 38.7 40.1 19.5 32 12.9 SSE 11 17 6 9 1006.7 1006.4 0.0
07/12:30pm 38.5 40.4 19.8 33 12.6 SE 9 17 5 9 1007.4 1007.1 0.0
07/12:00pm 37.9 40.0 20.2 35 11.9 SE 9 15 5 8 1008.2 1007.9 0.0
07/11:30am 37.1 39.5 20.8 38 11.1 SSW 9 17 5 9 1008.8 1008.5 0.0
07/11:00am 36.9 39.7 21.5 41 10.5 ESE 9 17 5 9 1009.2 1008.9 0.0
07/10:30am 36.2 38.2 21.6 42 10.0 ESE 13 19 7 10 1009.5 1009.2 0.0
07/10:00am 35.2 38.1 21.8 45 9.2 SE 9 17 5 9 1009.5 1009.2 0.0
07/09:30am 34.5 37.2 22.9 51 8.0 S 13 19 7 10 1009.5 1009.2 0.0
07/09:00am 33.8 37.8 23.8 56 7.0 SSE 9 11 5 6 1009.5 1009.2 0.0
07/08:30am 32.7 37.5 24.2 61 6.0 NE 6 7 3 4 1009.6 1009.3 0.0
07/08:00am 31.8 37.1 24.4 65 5.2 NE 4 7 2 4 1009.3 1009.0 0.0
07/07:30am 30.5 35.6 24.9 72 3.9 ENE 7 9 4 5 1009.2 1008.9 0.0
07/07:00am 29.5 34.5 24.8 76 3.3 ESE 7 7 4 4 1009.0 1008.7 0.0
07/06:30am 28.6 33.7 24.6 79 2.8 ESE 6 7 3 4 1008.6 1008.3 0.0
07/06:00am 28.2 32.7 24.6 81 2.5 ESE 9 11 5 6 1008.1 1007.8 0.0
07/05:30am 28.4 33.7 24.4 79 2.8 SE 4 11 2 6 1007.8 1007.5 0.0
07/05:00am 28.4 33.3 24.4 79 2.8 SE 6 7 3 4 1007.7 1007.4 0.0
07/04:30am 28.6 32.9 24.2 77 3.1 SSE 9 11 5 6 1007.4 1007.1 0.0
07/04:00am 28.6 33.3 23.9 75 3.3 SSE 6 9 3 5 1007.3 1007.0 0.0
07/03:30am 29.4 34.4 23.8 72 3.9 SE 4 7 2 4 1007.3 1007.0 0.0
07/03:00am 29.1 33.1 23.8 73 3.7 NNE 9 13 5 7 1007.3 1007.0 0.0
07/02:30am 29.0 32.3 23.9 74 3.5 NNE 13 17 7 9 1007.2 1006.9 0.0
07/02:00am 28.8 31.6 23.7 74 3.5 N 15 17 8 9 1007.4 1007.1 0.0
07/01:30am 28.9 32.0 23.6 73 3.7 N 13 15 7 8 1007.6 1007.3 0.0
07/01:00am 29.6 33.9 23.3 69 4.3 N 6 7 3 4 1007.5 1007.2 0.0
07/12:30am 29.8 34.3 23.0 67 4.7 WNW 4 7 2 4 1007.9 1007.6 0.0
07/12:00am 30.0 33.5 22.9 65 4.9 NE 9 13 5 7 1008.0 1007.7 0.0
 
Date/Time
CST
Temp
°C
App
Temp
°C
Dew
Point
°C
Rel
Hum
%
Delta-T
°C
Wind Press
QNH
hPa
Press
MSL
hPa
Rain since
9am
mm
Dir  Spd
km/h
Gust
km/h
Spd
kts
Gust
kts
06/11:30pm 30.3 33.1 23.0 65 5.0 NNE 13 15 7 8 1008.3 1008.0 0.0
06/11:00pm 31.1 34.3 22.4 60 5.9 NW 9 13 5 7 1008.7 1008.4 0.0
06/10:30pm 31.5 33.3 21.9 56 6.5 N 15 17 8 9 1008.4 1008.1 0.0
06/10:00pm 31.4 33.5 22.4 59 6.1 N 15 17 8 9 1008.0 1007.7 0.0
06/09:30pm 32.1 34.8 22.2 56 6.8 N 11 13 6 7 1007.6 1007.3 0.0
06/09:00pm 32.4 34.8 22.2 55 7.0 NNE 13 17 7 9 1007.3 1007.0 0.0
06/08:30pm 33.6 36.1 21.7 49 8.1 N 11 13 6 7 1006.9 1006.6 0.0
06/08:00pm 34.6 36.5 22.0 48 8.6 N 15 20 8 11 1006.4 1006.0 0.0
06/07:30pm 35.1 36.7 22.1 47 8.9 N 17 24 9 13 1005.6 1005.2 0.0
06/07:00pm 36.2 37.3 21.2 41 10.2 N 17 20 9 11 1004.8 1004.4 0.0
06/06:30pm 37.3 37.7 21.0 38 11.1 N 20 26 11 14 1004.3 1003.9 0.0
06/06:00pm 38.4 37.5 20.7 36 12.0 NNE 26 33 14 18 1004.1 1003.7 0.0
06/05:30pm 40.6 39.5 15.4 22 16.1 ESE 15 20 8 11 1003.9 1003.5 0.0
06/05:00pm 40.7 40.8 15.5 23 16.1 SE 9 15 5 8 1004.1 1003.7 0.0
06/04:30pm 40.9 39.9 15.7 23 16.2 SE 15 20 8 11 1004.2 1003.8 0.0
06/04:00pm 40.3 39.8 15.8 23 15.7 E 13 24 7 13 1004.4 1004.0 0.0
06/03:30pm 40.8 41.2 16.2 23 15.9 SE 9 17 5 9 1004.9 1004.5 0.0
06/03:00pm 39.6 38.6 16.5 25 14.9 SE 17 22 9 12 1005.4 1005.0 0.0
06/02:30pm 38.7 40.6 18.5 30 13.4 WSW 6 13 3 7 1005.8 1005.4 0.0
06/02:00pm 38.5 39.5 19.4 33 12.8 SSE 13 17 7 9 1006.6 1006.3 0.0
06/01:30pm 39.4 41.8 19.6 31 13.3 W 6 13 3 7 1007.1 1006.8 0.0
06/01:00pm 38.5 40.0 19.8 33 12.6 SSE 11 19 6 10 1007.6 1007.3 0.0
06/12:30pm 37.0 39.0 19.9 36 11.5 SE 9 15 5 8 1008.2 1007.9 0.0
06/12:00pm 37.9 39.1 19.8 35 12.1 SE 13 26 7 14 1008.6 1008.3 0.0
06/11:30am 36.4 37.7 20.2 38 10.9 S 13 19 7 10 1009.1 1008.8 0.0
06/11:00am 36.1 37.3 19.9 38 10.8 SE 13 20 7 11 1009.4 1009.1 0.0
06/10:30am 35.0 36.1 20.5 42 9.8 SSE 15 20 8 11 1009.8 1009.5 0.0
06/10:00am 35.0 36.3 21.6 45 9.1 SE 17 22 9 12 1010.0 1009.7 0.0
06/09:30am 34.2 35.6 21.9 48 8.4 SE 17 20 9 11 1010.1 1009.8 0.0
06/09:00am 33.4 36.1 22.2 52 7.7 ESE 11 17 6 9 1010.2 1009.9 0.0
06/08:30am 32.3 35.9 23.0 58 6.4 SE 9 13 5 7 1010.5 1010.2 0.0
06/08:00am 31.0 36.4 23.9 66 4.9 N 2 6 1 3 1010.2 1009.9 0.0
06/07:30am 30.5 35.9 23.9 68 4.6 ENE 2 6 1 3 1009.9 1009.6 0.0
06/07:00am 29.1 33.8 24.0 74 3.5 ESE 6 7 3 4 1009.9 1009.6 0.0
06/06:30am 27.8 31.8 23.8 79 2.8 ESE 9 13 5 7 1009.6 1009.3 0.0
06/06:00am 27.8 32.3 24.0 80 2.6 SSE 7 11 4 6 1009.3 1009.0 0.0
06/05:30am 27.5 32.4 23.1 77 3.0 NE 2 7 1 4 1008.8 1008.5 0.0
06/05:00am 27.4 32.6 22.8 76 3.1 CALM 0 0 0 0 1008.7 1008.4 0.0
06/04:30am 27.7 33.0 23.1 76 3.1 CALM 0 0 0 0 1008.4 1008.1 0.0
06/04:00am 27.7 33.1 23.3 77 3.0 CALM 0 4 0 2 1008.2 1007.9 0.0
06/03:30am 27.9 32.6 23.3 76 3.2 NNE 4 6 2 3 1008.0 1007.7 0.0
06/03:00am 28.0 32.2 23.4 76 3.2 N 7 9 4 5 1008.0 1007.7 0.0
06/02:30am 27.9 32.1 23.1 75 3.3 NNW 6 6 3 3 1008.0 1007.7 0.0
06/02:00am 28.1 32.2 23.0 74 3.5 N 6 9 3 5 1008.1 1007.8 0.0
06/01:30am 28.5 30.9 23.0 72 3.8 N 15 17 8 9 1008.3 1008.0 0.0
06/01:00am 28.8 32.5 22.5 68 4.3 N 7 9 4 5 1008.8 1008.5 0.0
06/12:30am 28.9 32.1 22.4 68 4.4 N 9 11 5 6 1009.1 1008.8 0.0
06/12:00am 30.3 35.1 22.2 62 5.5 CALM 0 6 0 3 1009.5 1009.2 0.0
 
Date/Time
CST
Temp
°C
App
Temp
°C
Dew
Point
°C
Rel
Hum
%
Delta-T
°C
Wind Press
QNH
hPa
Press
MSL
hPa
Rain since
9am
mm
Dir  Spd
km/h
Gust
km/h
Spd
kts
Gust
kts
05/11:30pm 30.9 33.9 21.9 58 6.1 NW 9 11 5 6 1009.6 1009.3 0.0
05/11:00pm 31.3 33.7 20.9 54 7.0 WNW 9 13 5 7 1009.6 1009.3 0.0
05/10:30pm 31.4 33.8 21.6 56 6.6 WNW 11 13 6 7 1009.4 1009.1 0.0
05/10:00pm 30.6 34.0 21.7 59 6.0 NNW 6 7 3 4 1009.2 1008.9 0.0
05/09:30pm 31.2 34.3 22.2 58 6.1 NW 9 11 5 6 1009.0 1008.7 0.0
05/09:00pm 30.7 33.7 22.0 59 5.9 N 9 13 5 7 1008.7 1008.4 0.0
05/08:30pm 31.3 34.4 21.5 56 6.6 N 7 9 4 5 1008.1 1007.8 0.0
05/08:00pm 31.6 34.0 21.5 55 6.8 N 11 13 6 7 1007.6 1007.3 0.0
05/07:30pm 32.1 34.3 21.9 54 6.9 N 13 15 7 8 1007.1 1006.8 0.0
05/07:00pm 33.3 35.1 21.1 48 8.2 N 13 15 7 8 1006.6 1006.3 0.0
05/06:30pm 33.9 35.6 21.0 47 8.7 N 13 17 7 9 1006.5 1006.1 0.0
05/06:00pm 33.8 35.1 20.9 46 8.7 N 15 19 8 10 1006.3 1005.9 0.0
05/05:30pm 34.3 35.1 21.4 47 8.8 N 19 26 10 14 1006.1 1005.7 0.0
05/05:00pm 36.4 34.9 19.4 37 11.3 NW 26 33 14 18 1006.0 1005.6 0.0
05/04:30pm 35.7 35.1 20.4 40 10.3 NNW 24 33 13 18 1006.0 1005.6 0.0
05/04:00pm 36.0 35.1 20.7 41 10.3 NNW 26 33 14 18 1006.1 1005.7 0.0
05/03:30pm 38.1 40.2 20.9 37 11.7 NNW 11 32 6 17 1005.9 1005.5 0.0
05/03:00pm 39.4 40.7 17.5 27 14.3 SSE 7 17 4 9 1006.2 1005.8 0.0
05/02:30pm 38.6 38.8 16.8 27 14.1 E 11 17 6 9 1006.5 1006.1 0.0
05/02:00pm 38.4 38.2 16.7 28 14.0 NNE 13 20 7 11 1007.1 1006.8 0.0
05/01:30pm 37.5 37.6 17.5 30 13.0 NNE 13 17 7 9 1007.8 1007.5 0.0
05/01:00pm 37.9 39.2 20.2 35 11.9 NE 13 24 7 13 1008.3 1008.0 0.0
05/12:30pm 36.9 38.4 19.8 36 11.5 NNE 11 22 6 12 1008.8 1008.5 0.0
05/12:00pm 36.3 37.6 20.1 38 10.9 NW 13 19 7 10 1009.1 1008.8 0.0
05/11:30am 35.8 37.1 20.1 40 10.5 N 13 24 7 13 1009.3 1009.0 0.0
05/11:00am 35.4 37.1 20.1 40 10.2 N 11 20 6 11 1009.8 1009.5 0.0
05/10:30am 35.0 37.3 21.3 45 9.3 NNE 11 15 6 8 1010.1 1009.8 0.0
05/10:00am 34.1 37.2 22.2 50 8.2 N 9 15 5 8 1010.2 1009.9 0.0
05/09:30am 33.6 36.1 21.1 48 8.4 N 9 20 5 11 1010.2 1009.9 0.0
05/09:00am 33.4 37.4 22.8 53 7.3 NE 6 11 3 6 1010.3 1010.0 0.0
05/08:30am 32.1 35.6 22.8 58 6.4 NNE 9 11 5 6 1010.1 1009.8 0.0
05/08:00am 30.6 34.5 23.0 64 5.2 N 7 9 4 5 1010.0 1009.7 0.0
05/07:30am 29.5 32.8 22.5 66 4.8 NNE 9 11 5 6 1009.7 1009.4 0.0
05/07:00am 28.1 31.4 22.6 72 3.7 NNE 9 11 5 6 1009.2 1008.9 0.0
05/06:30am 26.5 31.7 22.8 80 2.5 CALM 0 0 0 0 1008.8 1008.5 0.0
05/06:00am 26.6 31.3 22.0 76 3.1 CALM 0 0 0 0 1008.5 1008.2 0.0
05/05:30am 27.2 30.5 21.9 73 3.6 NNE 7 9 4 5 1008.4 1008.1 0.0
05/05:00am 27.4 32.2 22.1 73 3.6 CALM 0 0 0 0 1008.2 1007.9 0.0
05/04:30am 27.3 31.4 22.3 74 3.4 SSW 4 7 2 4 1007.9 1007.6 0.0
05/04:00am 26.8 29.9 22.2 76 3.1 N 9 11 5 6 1007.8 1007.5 0.0
05/03:30am 26.9 30.0 22.1 75 3.2 N 9 11 5 6 1007.7 1007.4 0.0
05/03:00am 27.4 30.4 21.2 69 4.1 NNW 7 9 4 5 1007.8 1007.5 0.0
05/02:30am 27.5 30.5 20.8 67 4.4 NNE 6 7 3 4 1008.0 1007.7 0.0
05/02:00am 27.8 30.6 20.4 64 4.9 NNE 6 7 3 4 1008.1 1007.8 0.0
05/01:30am 27.7 31.7 20.5 65 4.8 CALM 0 0 0 0 1008.3 1008.0 0.0

Other Formats:

Comma delimited format used in spreadsheet applications
http://www.bom.gov.au/fwo/IDD60801/IDD60801.94216.axf

JavaScript Object Notation format (JSON) in row-major order
http://www.bom.gov.au/fwo/IDD60801/IDD60801.94216.json